sensor_id;sensor_type;location;lat;lon;timestamp;P1;durP1;ratioP1;P2;durP2;ratioP2
3523;SDS011;1776;53.330;11.498;2024-01-07T00:00:27;4.40;;;2.10;;
3523;SDS011;1776;53.330;11.498;2024-01-07T00:02:53;2.80;;;1.83;;
3523;SDS011;1776;53.330;11.498;2024-01-07T00:05:18;4.23;;;2.13;;
3523;SDS011;1776;53.330;11.498;2024-01-07T00:07:44;3.77;;;2.13;;
3523;SDS011;1776;53.330;11.498;2024-01-07T00:10:09;2.67;;;1.97;;
3523;SDS011;1776;53.330;11.498;2024-01-07T00:12:34;3.47;;;2.40;;
3523;SDS011;1776;53.330;11.498;2024-01-07T00:15:00;4.80;;;2.73;;
3523;SDS011;1776;53.330;11.498;2024-01-07T00:17:26;3.33;;;2.20;;
3523;SDS011;1776;53.330;11.498;2024-01-07T00:19:51;2.10;;;1.90;;
3523;SDS011;1776;53.330;11.498;2024-01-07T00:22:16;5.60;;;2.40;;
3523;SDS011;1776;53.330;11.498;2024-01-07T00:24:42;4.00;;;2.80;;
3523;SDS011;1776;53.330;11.498;2024-01-07T00:27:07;5.67;;;2.87;;
3523;SDS011;1776;53.330;11.498;2024-01-07T00:29:33;4.90;;;2.27;;
3523;SDS011;1776;53.330;11.498;2024-01-07T00:32:00;4.60;;;2.33;;
3523;SDS011;1776;53.330;11.498;2024-01-07T00:34:25;3.43;;;1.60;;
3523;SDS011;1776;53.330;11.498;2024-01-07T00:36:51;2.60;;;2.07;;
3523;SDS011;1776;53.330;11.498;2024-01-07T00:39:16;3.30;;;2.27;;
3523;SDS011;1776;53.330;11.498;2024-01-07T00:41:41;3.77;;;2.00;;
3523;SDS011;1776;53.330;11.498;2024-01-07T00:44:06;4.27;;;3.00;;
3523;SDS011;1776;53.330;11.498;2024-01-07T00:46:31;4.37;;;2.40;;
3523;SDS011;1776;53.330;11.498;2024-01-07T00:48:57;2.80;;;2.20;;
3523;SDS011;1776;53.330;11.498;2024-01-07T00:51:22;4.60;;;3.33;;
3523;SDS011;1776;53.330;11.498;2024-01-07T00:53:47;2.97;;;1.83;;
3523;SDS011;1776;53.330;11.498;2024-01-07T00:56:12;4.53;;;2.77;;
3523;SDS011;1776;53.330;11.498;2024-01-07T00:58:38;5.37;;;3.40;;
3523;SDS011;1776;53.330;11.498;2024-01-07T01:01:03;4.70;;;2.40;;
3523;SDS011;1776;53.330;11.498;2024-01-07T01:03:28;3.40;;;2.53;;
3523;SDS011;1776;53.330;11.498;2024-01-07T01:05:54;6.23;;;2.30;;
3523;SDS011;1776;53.330;11.498;2024-01-07T01:08:21;5.60;;;2.73;;
3523;SDS011;1776;53.330;11.498;2024-01-07T01:10:46;2.23;;;1.73;;
3523;SDS011;1776;53.330;11.498;2024-01-07T01:13:12;5.00;;;2.57;;
3523;SDS011;1776;53.330;11.498;2024-01-07T01:15:37;3.03;;;1.87;;
3523;SDS011;1776;53.330;11.498;2024-01-07T01:18:02;2.90;;;2.00;;
3523;SDS011;1776;53.330;11.498;2024-01-07T01:20:28;3.43;;;2.37;;
3523;SDS011;1776;53.330;11.498;2024-01-07T01:22:53;3.50;;;2.03;;
3523;SDS011;1776;53.330;11.498;2024-01-07T01:25:18;3.40;;;2.20;;
3523;SDS011;1776;53.330;11.498;2024-01-07T01:27:43;3.13;;;1.83;;
3523;SDS011;1776;53.330;11.498;2024-01-07T01:30:10;4.37;;;2.13;;
3523;SDS011;1776;53.330;11.498;2024-01-07T01:32:35;4.63;;;1.83;;
3523;SDS011;1776;53.330;11.498;2024-01-07T01:35:01;4.30;;;2.00;;
3523;SDS011;1776;53.330;11.498;2024-01-07T01:37:27;4.50;;;2.30;;
3523;SDS011;1776;53.330;11.498;2024-01-07T01:39:52;4.07;;;2.10;;
3523;SDS011;1776;53.330;11.498;2024-01-07T01:42:17;3.83;;;2.33;;
3523;SDS011;1776;53.330;11.498;2024-01-07T01:44:42;3.33;;;1.73;;
3523;SDS011;1776;53.330;11.498;2024-01-07T01:47:09;2.73;;;1.50;;
3523;SDS011;1776;53.330;11.498;2024-01-07T01:49:35;3.20;;;1.80;;
3523;SDS011;1776;53.330;11.498;2024-01-07T01:52:03;6.90;;;2.60;;
3523;SDS011;1776;53.330;11.498;2024-01-07T01:54:29;4.40;;;1.50;;
3523;SDS011;1776;53.330;11.498;2024-01-07T01:56:54;2.03;;;1.83;;
3523;SDS011;1776;53.330;11.498;2024-01-07T01:59:20;2.97;;;1.60;;
3523;SDS011;1776;53.330;11.498;2024-01-07T02:01:45;2.33;;;1.70;;
3523;SDS011;1776;53.330;11.498;2024-01-07T02:04:11;2.90;;;1.87;;
3523;SDS011;1776;53.330;11.498;2024-01-07T02:06:36;5.07;;;1.77;;
3523;SDS011;1776;53.330;11.498;2024-01-07T02:09:02;1.90;;;1.67;;
3523;SDS011;1776;53.330;11.498;2024-01-07T02:11:28;3.87;;;1.60;;
3523;SDS011;1776;53.330;11.498;2024-01-07T02:13:53;2.63;;;1.47;;
3523;SDS011;1776;53.330;11.498;2024-01-07T02:16:19;2.60;;;1.60;;
3523;SDS011;1776;53.330;11.498;2024-01-07T02:18:44;4.30;;;1.90;;
3523;SDS011;1776;53.330;11.498;2024-01-07T02:21:10;4.80;;;1.93;;
3523;SDS011;1776;53.330;11.498;2024-01-07T02:23:37;4.03;;;2.00;;
3523;SDS011;1776;53.330;11.498;2024-01-07T02:26:02;2.73;;;2.10;;
3523;SDS011;1776;53.330;11.498;2024-01-07T02:28:28;5.40;;;1.90;;
3523;SDS011;1776;53.330;11.498;2024-01-07T02:30:54;2.67;;;1.73;;
3523;SDS011;1776;53.330;11.498;2024-01-07T02:33:19;2.53;;;1.70;;
3523;SDS011;1776;53.330;11.498;2024-01-07T02:35:44;5.37;;;2.13;;
3523;SDS011;1776;53.330;11.498;2024-01-07T02:38:10;3.70;;;1.80;;
3523;SDS011;1776;53.330;11.498;2024-01-07T02:40:35;3.77;;;1.70;;
3523;SDS011;1776;53.330;11.498;2024-01-07T02:43:00;3.90;;;1.80;;
3523;SDS011;1776;53.330;11.498;2024-01-07T02:45:25;4.73;;;1.80;;
3523;SDS011;1776;53.330;11.498;2024-01-07T02:47:51;2.40;;;1.80;;
3523;SDS011;1776;53.330;11.498;2024-01-07T02:50:16;2.77;;;1.40;;
3523;SDS011;1776;53.330;11.498;2024-01-07T02:52:42;2.37;;;1.43;;
3523;SDS011;1776;53.330;11.498;2024-01-07T02:55:07;2.13;;;1.90;;
3523;SDS011;1776;53.330;11.498;2024-01-07T02:57:33;1.77;;;1.60;;
3523;SDS011;1776;53.330;11.498;2024-01-07T02:59:58;2.17;;;1.63;;
3523;SDS011;1776;53.330;11.498;2024-01-07T03:02:23;2.60;;;1.50;;
3523;SDS011;1776;53.330;11.498;2024-01-07T03:04:49;2.23;;;2.00;;
3523;SDS011;1776;53.330;11.498;2024-01-07T03:07:14;2.40;;;2.03;;
3523;SDS011;1776;53.330;11.498;2024-01-07T03:09:39;2.47;;;1.60;;
3523;SDS011;1776;53.330;11.498;2024-01-07T03:12:05;3.23;;;1.70;;
3523;SDS011;1776;53.330;11.498;2024-01-07T03:14:31;2.80;;;1.47;;
3523;SDS011;1776;53.330;11.498;2024-01-07T03:16:56;2.33;;;1.53;;
3523;SDS011;1776;53.330;11.498;2024-01-07T03:19:21;2.07;;;1.60;;
3523;SDS011;1776;53.330;11.498;2024-01-07T03:21:47;2.60;;;1.20;;
3523;SDS011;1776;53.330;11.498;2024-01-07T03:24:13;3.63;;;1.87;;
3523;SDS011;1776;53.330;11.498;2024-01-07T03:26:38;2.73;;;2.00;;
3523;SDS011;1776;53.330;11.498;2024-01-07T03:29:04;2.97;;;1.67;;
3523;SDS011;1776;53.330;11.498;2024-01-07T03:31:29;3.10;;;1.60;;
3523;SDS011;1776;53.330;11.498;2024-01-07T03:33:54;5.30;;;2.67;;
3523;SDS011;1776;53.330;11.498;2024-01-07T03:36:20;3.10;;;2.20;;
3523;SDS011;1776;53.330;11.498;2024-01-07T03:38:45;4.10;;;1.70;;
3523;SDS011;1776;53.330;11.498;2024-01-07T03:41:15;1.30;;;1.20;;
3523;SDS011;1776;53.330;11.498;2024-01-07T03:43:42;3.33;;;2.60;;
3523;SDS011;1776;53.330;11.498;2024-01-07T03:46:08;5.03;;;2.00;;
3523;SDS011;1776;53.330;11.498;2024-01-07T03:48:33;2.73;;;2.13;;
3523;SDS011;1776;53.330;11.498;2024-01-07T03:50:58;3.30;;;1.97;;
3523;SDS011;1776;53.330;11.498;2024-01-07T03:53:23;5.30;;;2.00;;
3523;SDS011;1776;53.330;11.498;2024-01-07T03:55:49;2.87;;;1.80;;
3523;SDS011;1776;53.330;11.498;2024-01-07T03:58:14;5.40;;;2.63;;
3523;SDS011;1776;53.330;11.498;2024-01-07T04:00:39;2.17;;;1.40;;
3523;SDS011;1776;53.330;11.498;2024-01-07T04:03:04;3.23;;;1.83;;
3523;SDS011;1776;53.330;11.498;2024-01-07T04:05:30;4.73;;;1.57;;
3523;SDS011;1776;53.330;11.498;2024-01-07T04:07:55;3.23;;;1.60;;
3523;SDS011;1776;53.330;11.498;2024-01-07T04:10:20;2.80;;;1.90;;
3523;SDS011;1776;53.330;11.498;2024-01-07T04:12:45;3.10;;;1.27;;
3523;SDS011;1776;53.330;11.498;2024-01-07T04:15:11;1.87;;;1.60;;
3523;SDS011;1776;53.330;11.498;2024-01-07T04:17:37;2.30;;;1.40;;
3523;SDS011;1776;53.330;11.498;2024-01-07T04:20:02;1.97;;;1.83;;
3523;SDS011;1776;53.330;11.498;2024-01-07T04:22:28;4.83;;;1.90;;
3523;SDS011;1776;53.330;11.498;2024-01-07T04:24:53;4.40;;;2.10;;
3523;SDS011;1776;53.330;11.498;2024-01-07T04:27:18;3.67;;;1.50;;
3523;SDS011;1776;53.330;11.498;2024-01-07T04:29:44;3.93;;;1.90;;
3523;SDS011;1776;53.330;11.498;2024-01-07T04:32:09;2.90;;;1.77;;
3523;SDS011;1776;53.330;11.498;2024-01-07T04:34:34;1.70;;;1.40;;
3523;SDS011;1776;53.330;11.498;2024-01-07T04:36:59;1.97;;;1.73;;
3523;SDS011;1776;53.330;11.498;2024-01-07T04:39:24;4.90;;;1.40;;
3523;SDS011;1776;53.330;11.498;2024-01-07T04:41:50;3.60;;;1.87;;
3523;SDS011;1776;53.330;11.498;2024-01-07T04:44:16;1.53;;;1.10;;
3523;SDS011;1776;53.330;11.498;2024-01-07T04:46:41;2.50;;;1.60;;
3523;SDS011;1776;53.330;11.498;2024-01-07T04:49:06;6.17;;;1.70;;
3523;SDS011;1776;53.330;11.498;2024-01-07T04:51:32;3.20;;;1.60;;
3523;SDS011;1776;53.330;11.498;2024-01-07T04:53:58;8.20;;;2.10;;
3523;SDS011;1776;53.330;11.498;2024-01-07T04:56:23;3.00;;;1.60;;
3523;SDS011;1776;53.330;11.498;2024-01-07T04:58:48;2.90;;;1.93;;
3523;SDS011;1776;53.330;11.498;2024-01-07T05:01:14;4.83;;;1.57;;
3523;SDS011;1776;53.330;11.498;2024-01-07T05:03:39;2.00;;;1.50;;
3523;SDS011;1776;53.330;11.498;2024-01-07T05:06:04;2.03;;;1.30;;
3523;SDS011;1776;53.330;11.498;2024-01-07T05:08:30;3.30;;;1.37;;
3523;SDS011;1776;53.330;11.498;2024-01-07T05:10:55;2.40;;;1.70;;
3523;SDS011;1776;53.330;11.498;2024-01-07T05:13:21;2.23;;;1.60;;
3523;SDS011;1776;53.330;11.498;2024-01-07T05:15:47;2.10;;;1.50;;
3523;SDS011;1776;53.330;11.498;2024-01-07T05:18:18;2.60;;;1.60;;
3523;SDS011;1776;53.330;11.498;2024-01-07T05:20:50;1.33;;;1.20;;
3523;SDS011;1776;53.330;11.498;2024-01-07T05:23:15;4.53;;;2.00;;
3523;SDS011;1776;53.330;11.498;2024-01-07T05:25:44;1.97;;;1.60;;
3523;SDS011;1776;53.330;11.498;2024-01-07T05:28:11;2.00;;;1.27;;
3523;SDS011;1776;53.330;11.498;2024-01-07T05:30:37;7.13;;;2.00;;
3523;SDS011;1776;53.330;11.498;2024-01-07T05:33:03;2.23;;;1.40;;
3523;SDS011;1776;53.330;11.498;2024-01-07T05:35:29;1.80;;;1.40;;
3523;SDS011;1776;53.330;11.498;2024-01-07T05:37:54;1.80;;;1.40;;
3523;SDS011;1776;53.330;11.498;2024-01-07T05:40:20;3.67;;;2.17;;
3523;SDS011;1776;53.330;11.498;2024-01-07T05:42:45;4.33;;;1.30;;
3523;SDS011;1776;53.330;11.498;2024-01-07T05:45:10;3.60;;;1.73;;
3523;SDS011;1776;53.330;11.498;2024-01-07T05:47:36;2.63;;;1.43;;
3523;SDS011;1776;53.330;11.498;2024-01-07T05:50:01;2.70;;;1.70;;
3523;SDS011;1776;53.330;11.498;2024-01-07T05:52:27;3.13;;;1.60;;
3523;SDS011;1776;53.330;11.498;2024-01-07T05:54:52;2.27;;;1.53;;
3523;SDS011;1776;53.330;11.498;2024-01-07T05:57:17;3.57;;;1.50;;
3523;SDS011;1776;53.330;11.498;2024-01-07T05:59:43;2.47;;;1.60;;
3523;SDS011;1776;53.330;11.498;2024-01-07T06:02:09;3.17;;;2.00;;
3523;SDS011;1776;53.330;11.498;2024-01-07T06:04:34;1.97;;;1.60;;
3523;SDS011;1776;53.330;11.498;2024-01-07T06:06:59;2.50;;;1.20;;
3523;SDS011;1776;53.330;11.498;2024-01-07T06:09:25;5.13;;;1.53;;
3523;SDS011;1776;53.330;11.498;2024-01-07T06:11:50;2.70;;;1.40;;
3523;SDS011;1776;53.330;11.498;2024-01-07T06:14:15;4.00;;;1.83;;
3523;SDS011;1776;53.330;11.498;2024-01-07T06:16:40;1.80;;;1.40;;
3523;SDS011;1776;53.330;11.498;2024-01-07T06:19:07;1.77;;;1.40;;
3523;SDS011;1776;53.330;11.498;2024-01-07T06:21:32;2.70;;;1.60;;
3523;SDS011;1776;53.330;11.498;2024-01-07T06:23:57;2.33;;;1.40;;
3523;SDS011;1776;53.330;11.498;2024-01-07T06:26:23;3.47;;;1.47;;
3523;SDS011;1776;53.330;11.498;2024-01-07T06:28:48;4.80;;;1.40;;
3523;SDS011;1776;53.330;11.498;2024-01-07T06:31:13;2.60;;;1.60;;
3523;SDS011;1776;53.330;11.498;2024-01-07T06:33:38;2.73;;;1.40;;
3523;SDS011;1776;53.330;11.498;2024-01-07T06:36:04;2.20;;;1.53;;
3523;SDS011;1776;53.330;11.498;2024-01-07T06:38:29;1.67;;;1.37;;
3523;SDS011;1776;53.330;11.498;2024-01-07T06:40:54;2.73;;;1.63;;
3523;SDS011;1776;53.330;11.498;2024-01-07T06:43:20;4.20;;;1.60;;
3523;SDS011;1776;53.330;11.498;2024-01-07T06:45:46;3.93;;;1.47;;
3523;SDS011;1776;53.330;11.498;2024-01-07T06:48:11;2.47;;;1.40;;
3523;SDS011;1776;53.330;11.498;2024-01-07T06:50:36;1.90;;;1.57;;
3523;SDS011;1776;53.330;11.498;2024-01-07T06:53:01;1.40;;;1.30;;
3523;SDS011;1776;53.330;11.498;2024-01-07T06:55:27;2.70;;;1.43;;
3523;SDS011;1776;53.330;11.498;2024-01-07T06:57:52;1.60;;;1.10;;
3523;SDS011;1776;53.330;11.498;2024-01-07T07:00:17;6.67;;;1.43;;
3523;SDS011;1776;53.330;11.498;2024-01-07T07:02:43;2.87;;;1.10;;
3523;SDS011;1776;53.330;11.498;2024-01-07T07:05:08;1.80;;;1.10;;
3523;SDS011;1776;53.330;11.498;2024-01-07T07:07:34;2.20;;;1.37;;
3523;SDS011;1776;53.330;11.498;2024-01-07T07:09:59;2.87;;;1.83;;
3523;SDS011;1776;53.330;11.498;2024-01-07T07:12:24;2.07;;;1.50;;
3523;SDS011;1776;53.330;11.498;2024-01-07T07:14:50;2.97;;;1.60;;
3523;SDS011;1776;53.330;11.498;2024-01-07T07:17:15;1.57;;;1.20;;
3523;SDS011;1776;53.330;11.498;2024-01-07T07:19:40;1.70;;;1.10;;
3523;SDS011;1776;53.330;11.498;2024-01-07T07:22:06;2.80;;;1.10;;
3523;SDS011;1776;53.330;11.498;2024-01-07T07:24:31;4.00;;;1.13;;
3523;SDS011;1776;53.330;11.498;2024-01-07T07:26:56;1.07;;;0.90;;
3523;SDS011;1776;53.330;11.498;2024-01-07T07:29:21;2.00;;;1.40;;
3523;SDS011;1776;53.330;11.498;2024-01-07T07:31:47;3.73;;;1.10;;
3523;SDS011;1776;53.330;11.498;2024-01-07T07:34:12;2.50;;;1.43;;
3523;SDS011;1776;53.330;11.498;2024-01-07T07:36:37;4.10;;;1.70;;
3523;SDS011;1776;53.330;11.498;2024-01-07T07:39:04;2.93;;;1.40;;
3523;SDS011;1776;53.330;11.498;2024-01-07T07:41:29;2.20;;;1.70;;
3523;SDS011;1776;53.330;11.498;2024-01-07T07:43:55;1.67;;;1.47;;
3523;SDS011;1776;53.330;11.498;2024-01-07T07:46:20;31.03;;;12.50;;
3523;SDS011;1776;53.330;11.498;2024-01-07T07:48:45;54.93;;;17.90;;
3523;SDS011;1776;53.330;11.498;2024-01-07T07:51:10;52.20;;;17.47;;
3523;SDS011;1776;53.330;11.498;2024-01-07T07:53:37;30.47;;;11.27;;
3523;SDS011;1776;53.330;11.498;2024-01-07T07:56:04;47.80;;;13.47;;
3523;SDS011;1776;53.330;11.498;2024-01-07T07:58:29;42.73;;;13.80;;
3523;SDS011;1776;53.330;11.498;2024-01-07T08:00:55;45.63;;;15.20;;
3523;SDS011;1776;53.330;11.498;2024-01-07T08:03:20;49.83;;;15.63;;
3523;SDS011;1776;53.330;11.498;2024-01-07T08:05:45;65.73;;;17.70;;
3523;SDS011;1776;53.330;11.498;2024-01-07T08:08:11;47.87;;;14.47;;
3523;SDS011;1776;53.330;11.498;2024-01-07T08:10:36;60.43;;;21.30;;
3523;SDS011;1776;53.330;11.498;2024-01-07T08:13:01;60.63;;;25.20;;
3523;SDS011;1776;53.330;11.498;2024-01-07T08:15:27;41.53;;;21.20;;
3523;SDS011;1776;53.330;11.498;2024-01-07T08:17:52;53.73;;;24.10;;
3523;SDS011;1776;53.330;11.498;2024-01-07T08:20:17;42.40;;;20.17;;
3523;SDS011;1776;53.330;11.498;2024-01-07T08:22:42;30.13;;;15.93;;
3523;SDS011;1776;53.330;11.498;2024-01-07T08:25:08;16.00;;;9.63;;
3523;SDS011;1776;53.330;11.498;2024-01-07T08:27:33;21.00;;;12.00;;
3523;SDS011;1776;53.330;11.498;2024-01-07T08:30:00;9.70;;;6.60;;
3523;SDS011;1776;53.330;11.498;2024-01-07T08:32:25;11.03;;;6.33;;
3523;SDS011;1776;53.330;11.498;2024-01-07T08:34:51;6.97;;;4.77;;
3523;SDS011;1776;53.330;11.498;2024-01-07T08:37:16;4.70;;;3.03;;
3523;SDS011;1776;53.330;11.498;2024-01-07T08:39:41;4.07;;;3.53;;
3523;SDS011;1776;53.330;11.498;2024-01-07T08:42:06;4.40;;;3.10;;
3523;SDS011;1776;53.330;11.498;2024-01-07T08:44:32;6.57;;;5.07;;
3523;SDS011;1776;53.330;11.498;2024-01-07T08:46:57;3.73;;;3.07;;
3523;SDS011;1776;53.330;11.498;2024-01-07T08:49:22;3.70;;;2.57;;
3523;SDS011;1776;53.330;11.498;2024-01-07T08:51:47;6.93;;;2.77;;
3523;SDS011;1776;53.330;11.498;2024-01-07T08:54:13;9.40;;;3.80;;
3523;SDS011;1776;53.330;11.498;2024-01-07T08:56:38;13.00;;;3.70;;
3523;SDS011;1776;53.330;11.498;2024-01-07T08:59:04;2.20;;;2.00;;
3523;SDS011;1776;53.330;11.498;2024-01-07T09:01:29;3.97;;;2.23;;
3523;SDS011;1776;53.330;11.498;2024-01-07T09:03:55;3.90;;;2.27;;
3523;SDS011;1776;53.330;11.498;2024-01-07T09:06:20;4.07;;;2.37;;
3523;SDS011;1776;53.330;11.498;2024-01-07T09:08:45;3.90;;;2.30;;
3523;SDS011;1776;53.330;11.498;2024-01-07T09:11:10;4.07;;;2.07;;
3523;SDS011;1776;53.330;11.498;2024-01-07T09:13:37;5.17;;;3.00;;
3523;SDS011;1776;53.330;11.498;2024-01-07T09:16:03;6.10;;;3.00;;
3523;SDS011;1776;53.330;11.498;2024-01-07T09:18:28;3.73;;;1.80;;
3523;SDS011;1776;53.330;11.498;2024-01-07T09:20:53;5.10;;;2.27;;
3523;SDS011;1776;53.330;11.498;2024-01-07T09:23:18;9.13;;;2.90;;
3523;SDS011;1776;53.330;11.498;2024-01-07T09:25:44;4.47;;;2.37;;
3523;SDS011;1776;53.330;11.498;2024-01-07T09:28:11;3.20;;;1.77;;
3523;SDS011;1776;53.330;11.498;2024-01-07T09:30:36;4.00;;;2.50;;
3523;SDS011;1776;53.330;11.498;2024-01-07T09:33:01;3.13;;;2.50;;
3523;SDS011;1776;53.330;11.498;2024-01-07T09:35:27;9.30;;;1.83;;
3523;SDS011;1776;53.330;11.498;2024-01-07T09:37:52;5.60;;;2.30;;
3523;SDS011;1776;53.330;11.498;2024-01-07T09:40:17;3.10;;;2.13;;
3523;SDS011;1776;53.330;11.498;2024-01-07T09:42:44;3.83;;;1.70;;
3523;SDS011;1776;53.330;11.498;2024-01-07T09:45:09;4.40;;;2.23;;
3523;SDS011;1776;53.330;11.498;2024-01-07T09:47:38;2.60;;;1.67;;
3523;SDS011;1776;53.330;11.498;2024-01-07T09:50:05;2.60;;;1.70;;
3523;SDS011;1776;53.330;11.498;2024-01-07T09:52:31;3.33;;;1.80;;
3523;SDS011;1776;53.330;11.498;2024-01-07T09:54:58;2.60;;;1.90;;
3523;SDS011;1776;53.330;11.498;2024-01-07T09:57:27;6.00;;;3.87;;
3523;SDS011;1776;53.330;11.498;2024-01-07T09:59:53;72.20;;;29.47;;
3523;SDS011;1776;53.330;11.498;2024-01-07T10:02:18;127.70;;;45.37;;
3523;SDS011;1776;53.330;11.498;2024-01-07T10:04:43;57.93;;;19.90;;
3523;SDS011;1776;53.330;11.498;2024-01-07T10:07:10;129.03;;;39.10;;
3523;SDS011;1776;53.330;11.498;2024-01-07T10:09:35;10.13;;;5.60;;
3523;SDS011;1776;53.330;11.498;2024-01-07T10:12:00;4.40;;;2.70;;
3523;SDS011;1776;53.330;11.498;2024-01-07T10:14:27;2.80;;;2.50;;
3523;SDS011;1776;53.330;11.498;2024-01-07T10:16:52;3.77;;;3.10;;
3523;SDS011;1776;53.330;11.498;2024-01-07T10:19:21;3.30;;;1.87;;
3523;SDS011;1776;53.330;11.498;2024-01-07T10:22:00;6.37;;;3.00;;
3523;SDS011;1776;53.330;11.498;2024-01-07T10:24:41;3.40;;;2.10;;
3523;SDS011;1776;53.330;11.498;2024-01-07T10:27:08;5.13;;;2.30;;
3523;SDS011;1776;53.330;11.498;2024-01-07T10:29:34;5.93;;;2.57;;
3523;SDS011;1776;53.330;11.498;2024-01-07T10:32:00;3.80;;;3.03;;
3523;SDS011;1776;53.330;11.498;2024-01-07T10:34:29;8.90;;;2.97;;
3523;SDS011;1776;53.330;11.498;2024-01-07T10:36:56;4.97;;;2.77;;
3523;SDS011;1776;53.330;11.498;2024-01-07T10:39:27;3.87;;;2.90;;
3523;SDS011;1776;53.330;11.498;2024-01-07T10:41:52;5.23;;;3.53;;
3523;SDS011;1776;53.330;11.498;2024-01-07T10:44:22;10.50;;;3.60;;
3523;SDS011;1776;53.330;11.498;2024-01-07T10:46:49;6.13;;;3.60;;
3523;SDS011;1776;53.330;11.498;2024-01-07T10:49:19;4.37;;;2.53;;
3523;SDS011;1776;53.330;11.498;2024-01-07T10:51:45;5.00;;;2.93;;
3523;SDS011;1776;53.330;11.498;2024-01-07T10:54:20;8.47;;;2.93;;
3523;SDS011;1776;53.330;11.498;2024-01-07T10:56:48;6.50;;;2.93;;
3523;SDS011;1776;53.330;11.498;2024-01-07T10:59:15;5.10;;;3.50;;
3523;SDS011;1776;53.330;11.498;2024-01-07T11:01:42;3.43;;;2.80;;
3523;SDS011;1776;53.330;11.498;2024-01-07T11:04:10;2.43;;;2.23;;
3523;SDS011;1776;53.330;11.498;2024-01-07T11:06:57;7.33;;;3.00;;
3523;SDS011;1776;53.330;11.498;2024-01-07T11:09:43;5.37;;;3.07;;
3523;SDS011;1776;53.330;11.498;2024-01-07T11:12:24;2.53;;;1.93;;
3523;SDS011;1776;53.330;11.498;2024-01-07T11:14:50;2.10;;;1.90;;
3523;SDS011;1776;53.330;11.498;2024-01-07T11:17:51;3.80;;;2.53;;
3523;SDS011;1776;53.330;11.498;2024-01-07T11:20:18;2.30;;;1.90;;
3523;SDS011;1776;53.330;11.498;2024-01-07T11:22:45;3.40;;;2.93;;
3523;SDS011;1776;53.330;11.498;2024-01-07T11:28:06;7.80;;;2.70;;
3523;SDS011;1776;53.330;11.498;2024-01-07T11:30:32;4.83;;;2.23;;
3523;SDS011;1776;53.330;11.498;2024-01-07T11:33:03;6.33;;;2.73;;
3523;SDS011;1776;53.330;11.498;2024-01-07T11:38:25;2.90;;;2.50;;
3523;SDS011;1776;53.330;11.498;2024-01-07T11:40:51;5.00;;;3.70;;
3523;SDS011;1776;53.330;11.498;2024-01-07T11:43:18;4.30;;;3.70;;
3523;SDS011;1776;53.330;11.498;2024-01-07T11:45:43;2.97;;;1.77;;
3523;SDS011;1776;53.330;11.498;2024-01-07T11:48:09;2.63;;;2.10;;
3523;SDS011;1776;53.330;11.498;2024-01-07T11:50:35;2.60;;;1.80;;
3523;SDS011;1776;53.330;11.498;2024-01-07T11:53:00;6.13;;;1.70;;
3523;SDS011;1776;53.330;11.498;2024-01-07T11:55:25;1.87;;;1.70;;
3523;SDS011;1776;53.330;11.498;2024-01-07T11:57:52;2.57;;;2.37;;
3523;SDS011;1776;53.330;11.498;2024-01-07T12:00:17;5.40;;;2.00;;
3523;SDS011;1776;53.330;11.498;2024-01-07T12:02:43;6.03;;;1.67;;
3523;SDS011;1776;53.330;11.498;2024-01-07T12:05:08;3.53;;;1.90;;
3523;SDS011;1776;53.330;11.498;2024-01-07T12:07:33;2.67;;;1.70;;
3523;SDS011;1776;53.330;11.498;2024-01-07T12:10:02;2.30;;;1.70;;
3523;SDS011;1776;53.330;11.498;2024-01-07T12:12:27;4.90;;;2.40;;
3523;SDS011;1776;53.330;11.498;2024-01-07T12:14:53;4.30;;;2.17;;
3523;SDS011;1776;53.330;11.498;2024-01-07T12:17:19;4.60;;;2.13;;
3523;SDS011;1776;53.330;11.498;2024-01-07T12:19:45;4.30;;;2.67;;
3523;SDS011;1776;53.330;11.498;2024-01-07T12:22:10;7.07;;;3.03;;
3523;SDS011;1776;53.330;11.498;2024-01-07T12:24:35;4.50;;;2.30;;
3523;SDS011;1776;53.330;11.498;2024-01-07T12:27:06;3.43;;;1.60;;
3523;SDS011;1776;53.330;11.498;2024-01-07T12:29:32;2.00;;;1.80;;
3523;SDS011;1776;53.330;11.498;2024-01-07T12:31:57;3.10;;;1.90;;
3523;SDS011;1776;53.330;11.498;2024-01-07T12:34:24;2.20;;;1.60;;
3523;SDS011;1776;53.330;11.498;2024-01-07T12:36:49;3.03;;;2.40;;
3523;SDS011;1776;53.330;11.498;2024-01-07T12:39:16;2.33;;;1.77;;
3523;SDS011;1776;53.330;11.498;2024-01-07T12:41:41;1.20;;;1.10;;
3523;SDS011;1776;53.330;11.498;2024-01-07T12:44:06;2.40;;;1.30;;
3523;SDS011;1776;53.330;11.498;2024-01-07T12:46:33;3.47;;;1.20;;
3523;SDS011;1776;53.330;11.498;2024-01-07T12:48:59;1.33;;;1.23;;
3523;SDS011;1776;53.330;11.498;2024-01-07T12:51:24;2.00;;;1.33;;
3523;SDS011;1776;53.330;11.498;2024-01-07T12:53:50;1.83;;;1.10;;
3523;SDS011;1776;53.330;11.498;2024-01-07T12:56:15;2.50;;;1.30;;
3523;SDS011;1776;53.330;11.498;2024-01-07T12:58:40;3.73;;;1.77;;
3523;SDS011;1776;53.330;11.498;2024-01-07T13:01:05;2.23;;;1.10;;
3523;SDS011;1776;53.330;11.498;2024-01-07T13:03:31;3.73;;;1.70;;
3523;SDS011;1776;53.330;11.498;2024-01-07T13:05:56;1.00;;;0.90;;
3523;SDS011;1776;53.330;11.498;2024-01-07T13:08:21;1.13;;;0.90;;
3523;SDS011;1776;53.330;11.498;2024-01-07T13:10:47;2.70;;;1.40;;
3523;SDS011;1776;53.330;11.498;2024-01-07T13:13:13;0.80;;;0.80;;
3523;SDS011;1776;53.330;11.498;2024-01-07T13:15:38;1.10;;;1.00;;
3523;SDS011;1776;53.330;11.498;2024-01-07T13:18:06;2.40;;;1.67;;
3523;SDS011;1776;53.330;11.498;2024-01-07T13:20:31;1.77;;;1.13;;
3523;SDS011;1776;53.330;11.498;2024-01-07T13:22:56;1.23;;;1.13;;
3523;SDS011;1776;53.330;11.498;2024-01-07T13:25:22;1.00;;;0.90;;
3523;SDS011;1776;53.330;11.498;2024-01-07T13:27:47;1.63;;;1.17;;
3523;SDS011;1776;53.330;11.498;2024-01-07T13:30:12;1.60;;;0.97;;
3523;SDS011;1776;53.330;11.498;2024-01-07T13:32:38;0.83;;;0.83;;
3523;SDS011;1776;53.330;11.498;2024-01-07T13:35:03;1.03;;;0.80;;
3523;SDS011;1776;53.330;11.498;2024-01-07T13:37:29;1.47;;;1.07;;
3523;SDS011;1776;53.330;11.498;2024-01-07T13:39:58;2.50;;;0.90;;
3523;SDS011;1776;53.330;11.498;2024-01-07T13:42:23;7.10;;;0.97;;
3523;SDS011;1776;53.330;11.498;2024-01-07T13:44:48;1.80;;;1.00;;
3523;SDS011;1776;53.330;11.498;2024-01-07T13:47:14;1.27;;;1.00;;
3523;SDS011;1776;53.330;11.498;2024-01-07T13:49:42;1.50;;;1.27;;
3523;SDS011;1776;53.330;11.498;2024-01-07T13:52:07;1.13;;;1.13;;
3523;SDS011;1776;53.330;11.498;2024-01-07T13:54:32;1.50;;;1.00;;
3523;SDS011;1776;53.330;11.498;2024-01-07T13:56:58;1.87;;;1.07;;
3523;SDS011;1776;53.330;11.498;2024-01-07T13:59:24;1.47;;;1.13;;
3523;SDS011;1776;53.330;11.498;2024-01-07T14:01:50;3.20;;;1.77;;
3523;SDS011;1776;53.330;11.498;2024-01-07T14:04:15;2.50;;;1.43;;
3523;SDS011;1776;53.330;11.498;2024-01-07T14:06:40;2.43;;;1.40;;
3523;SDS011;1776;53.330;11.498;2024-01-07T14:09:06;6.83;;;1.60;;
3523;SDS011;1776;53.330;11.498;2024-01-07T14:11:33;1.60;;;1.20;;
3523;SDS011;1776;53.330;11.498;2024-01-07T14:13:59;4.00;;;1.07;;
3523;SDS011;1776;53.330;11.498;2024-01-07T14:16:24;5.43;;;1.70;;
3523;SDS011;1776;53.330;11.498;2024-01-07T14:18:50;1.73;;;1.23;;
3523;SDS011;1776;53.330;11.498;2024-01-07T14:21:15;1.20;;;1.10;;
3523;SDS011;1776;53.330;11.498;2024-01-07T14:23:41;1.87;;;1.23;;
3523;SDS011;1776;53.330;11.498;2024-01-07T14:26:06;2.70;;;1.30;;
3523;SDS011;1776;53.330;11.498;2024-01-07T14:28:31;1.43;;;1.20;;
3523;SDS011;1776;53.330;11.498;2024-01-07T14:30:57;1.50;;;1.40;;
3523;SDS011;1776;53.330;11.498;2024-01-07T14:33:23;1.13;;;1.03;;
3523;SDS011;1776;53.330;11.498;2024-01-07T14:35:48;2.20;;;1.30;;
3523;SDS011;1776;53.330;11.498;2024-01-07T14:38:14;1.43;;;1.20;;
3523;SDS011;1776;53.330;11.498;2024-01-07T14:40:39;1.77;;;1.53;;
3523;SDS011;1776;53.330;11.498;2024-01-07T14:43:06;1.57;;;1.20;;
3523;SDS011;1776;53.330;11.498;2024-01-07T14:45:31;1.77;;;1.20;;
3523;SDS011;1776;53.330;11.498;2024-01-07T14:47:56;2.80;;;1.60;;
3523;SDS011;1776;53.330;11.498;2024-01-07T14:50:22;2.20;;;1.57;;
3523;SDS011;1776;53.330;11.498;2024-01-07T14:52:47;1.30;;;0.97;;
3523;SDS011;1776;53.330;11.498;2024-01-07T14:55:13;2.00;;;1.77;;
3523;SDS011;1776;53.330;11.498;2024-01-07T14:57:39;1.53;;;1.43;;